sensor_id;sensor_type;location;lat;lon;timestamp;pressure;altitude;pressure_sealevel;temperature;humidity
1616;BME280;801;47.982;7.810;2023-01-15T00:02:15;97680.34;;;13.84;100.00
1616;BME280;801;47.982;7.810;2023-01-15T00:04:42;97680.22;;;13.89;100.00
1616;BME280;801;47.982;7.810;2023-01-15T00:07:10;97656.41;;;13.91;100.00
1616;BME280;801;47.982;7.810;2023-01-15T00:09:36;97721.44;;;13.81;100.00
1616;BME280;801;47.982;7.810;2023-01-15T00:12:03;97672.53;;;13.83;100.00
1616;BME280;801;47.982;7.810;2023-01-15T00:14:30;97660.28;;;13.49;100.00
1616;BME280;801;47.982;7.810;2023-01-15T00:16:56;97665.09;;;13.38;100.00
1616;BME280;801;47.982;7.810;2023-01-15T00:19:22;97642.81;;;13.46;100.00
1616;BME280;801;47.982;7.810;2023-01-15T00:21:49;97642.41;;;13.39;100.00
1616;BME280;801;47.982;7.810;2023-01-15T00:24:18;97646.78;;;13.07;100.00
1616;BME280;801;47.982;7.810;2023-01-15T00:27:08;97648.56;;;12.98;100.00
1616;BME280;801;47.982;7.810;2023-01-15T00:29:53;97634.47;;;13.01;100.00
1616;BME280;801;47.982;7.810;2023-01-15T00:32:19;97635.09;;;12.84;100.00
1616;BME280;801;47.982;7.810;2023-01-15T00:34:46;97624.00;;;12.86;100.00
1616;BME280;801;47.982;7.810;2023-01-15T00:37:12;97630.09;;;12.78;100.00
1616;BME280;801;47.982;7.810;2023-01-15T00:39:40;97665.88;;;12.51;100.00
1616;BME280;801;47.982;7.810;2023-01-15T00:42:07;97628.06;;;12.70;100.00
1616;BME280;801;47.982;7.810;2023-01-15T00:44:34;97619.75;;;12.52;100.00
1616;BME280;801;47.982;7.810;2023-01-15T00:47:00;97614.84;;;12.40;100.00
1616;BME280;801;47.982;7.810;2023-01-15T00:49:27;97622.97;;;12.68;100.00
1616;BME280;801;47.982;7.810;2023-01-15T00:51:53;97613.78;;;12.55;100.00
1616;BME280;801;47.982;7.810;2023-01-15T00:54:20;97605.69;;;12.55;100.00
1616;BME280;801;47.982;7.810;2023-01-15T00:56:48;97605.47;;;12.52;100.00
1616;BME280;801;47.982;7.810;2023-01-15T00:59:14;97610.47;;;12.58;100.00
1616;BME280;801;47.982;7.810;2023-01-15T01:01:41;97615.19;;;12.66;100.00
1616;BME280;801;47.982;7.810;2023-01-15T01:04:07;97613.28;;;12.67;100.00
1616;BME280;801;47.982;7.810;2023-01-15T01:06:34;97620.72;;;12.75;100.00
1616;BME280;801;47.982;7.810;2023-01-15T01:09:00;97614.72;;;12.78;100.00
1616;BME280;801;47.982;7.810;2023-01-15T01:11:27;97623.84;;;12.63;100.00
1616;BME280;801;47.982;7.810;2023-01-15T01:14:00;97621.91;;;12.83;100.00
1616;BME280;801;47.982;7.810;2023-01-15T01:16:28;97600.31;;;12.69;100.00
1616;BME280;801;47.982;7.810;2023-01-15T01:18:56;97612.31;;;12.77;100.00
1616;BME280;801;47.982;7.810;2023-01-15T01:21:23;97608.50;;;12.64;100.00
1616;BME280;801;47.982;7.810;2023-01-15T01:23:50;97599.75;;;12.86;100.00
1616;BME280;801;47.982;7.810;2023-01-15T01:26:16;97612.41;;;12.72;100.00
1616;BME280;801;47.982;7.810;2023-01-15T01:28:47;97605.03;;;12.91;100.00
1616;BME280;801;47.982;7.810;2023-01-15T01:31:16;97590.16;;;12.80;100.00
1616;BME280;801;47.982;7.810;2023-01-15T01:33:43;97580.38;;;12.84;100.00
1616;BME280;801;47.982;7.810;2023-01-15T01:36:10;97594.13;;;12.96;100.00
1616;BME280;801;47.982;7.810;2023-01-15T01:38:36;97577.06;;;12.87;100.00
1616;BME280;801;47.982;7.810;2023-01-15T01:41:03;97599.94;;;13.03;100.00
1616;BME280;801;47.982;7.810;2023-01-15T01:43:29;97570.19;;;13.08;100.00
1616;BME280;801;47.982;7.810;2023-01-15T01:45:56;97569.53;;;13.25;100.00
1616;BME280;801;47.982;7.810;2023-01-15T01:48:28;97577.94;;;13.10;100.00
1616;BME280;801;47.982;7.810;2023-01-15T01:50:57;97562.34;;;13.21;100.00
1616;BME280;801;47.982;7.810;2023-01-15T01:53:28;97573.16;;;13.21;100.00
1616;BME280;801;47.982;7.810;2023-01-15T01:55:56;97562.56;;;13.38;100.00
1616;BME280;801;47.982;7.810;2023-01-15T01:58:26;97564.06;;;13.44;100.00
1616;BME280;801;47.982;7.810;2023-01-15T02:00:54;97556.97;;;13.35;100.00
1616;BME280;801;47.982;7.810;2023-01-15T02:03:26;97568.22;;;13.50;100.00
1616;BME280;801;47.982;7.810;2023-01-15T02:05:57;97566.75;;;13.44;100.00
1616;BME280;801;47.982;7.810;2023-01-15T02:08:26;97558.75;;;13.39;100.00
1616;BME280;801;47.982;7.810;2023-01-15T02:10:53;97564.34;;;13.43;100.00
1616;BME280;801;47.982;7.810;2023-01-15T02:13:26;97552.50;;;13.66;100.00
1616;BME280;801;47.982;7.810;2023-01-15T02:15:59;97557.19;;;13.61;100.00
1616;BME280;801;47.982;7.810;2023-01-15T02:18:33;97566.41;;;13.60;100.00
1616;BME280;801;47.982;7.810;2023-01-15T02:21:06;97555.63;;;13.60;100.00
1616;BME280;801;47.982;7.810;2023-01-15T02:24:00;97552.28;;;13.63;100.00
1616;BME280;801;47.982;7.810;2023-01-15T02:27:07;97548.44;;;13.55;100.00
1616;BME280;801;47.982;7.810;2023-01-15T02:29:50;97559.91;;;13.61;100.00
1616;BME280;801;47.982;7.810;2023-01-15T02:32:27;97568.13;;;13.56;100.00
1616;BME280;801;47.982;7.810;2023-01-15T02:34:58;97542.13;;;13.60;100.00
1616;BME280;801;47.982;7.810;2023-01-15T02:37:29;97545.41;;;13.57;100.00
1616;BME280;801;47.982;7.810;2023-01-15T02:39:59;97525.09;;;13.59;100.00
1616;BME280;801;47.982;7.810;2023-01-15T02:42:30;97549.22;;;13.56;100.00
1616;BME280;801;47.982;7.810;2023-01-15T02:44:57;97526.22;;;13.22;100.00
1616;BME280;801;47.982;7.810;2023-01-15T02:47:30;97538.06;;;13.21;100.00
1616;BME280;801;47.982;7.810;2023-01-15T02:50:03;97539.50;;;13.04;100.00
1616;BME280;801;47.982;7.810;2023-01-15T02:52:35;97538.06;;;13.21;100.00
1616;BME280;801;47.982;7.810;2023-01-15T02:55:05;97531.69;;;13.17;100.00
1616;BME280;801;47.982;7.810;2023-01-15T02:57:36;97541.19;;;13.28;100.00
1616;BME280;801;47.982;7.810;2023-01-15T03:00:08;97550.56;;;13.31;100.00
1616;BME280;801;47.982;7.810;2023-01-15T03:02:40;97541.75;;;13.39;100.00
1616;BME280;801;47.982;7.810;2023-01-15T03:05:10;97545.50;;;13.29;100.00
1616;BME280;801;47.982;7.810;2023-01-15T03:07:42;97541.19;;;13.42;100.00
1616;BME280;801;47.982;7.810;2023-01-15T03:10:10;97540.69;;;13.12;100.00
1616;BME280;801;47.982;7.810;2023-01-15T03:12:42;97537.41;;;13.01;100.00
1616;BME280;801;47.982;7.810;2023-01-15T03:15:24;97547.41;;;13.01;100.00
1616;BME280;801;47.982;7.810;2023-01-15T03:18:09;97559.78;;;13.02;100.00
1616;BME280;801;47.982;7.810;2023-01-15T03:20:40;97536.22;;;12.94;100.00
1616;BME280;801;47.982;7.810;2023-01-15T03:23:10;97553.19;;;12.94;100.00
1616;BME280;801;47.982;7.810;2023-01-15T03:25:42;97560.00;;;12.92;100.00
1616;BME280;801;47.982;7.810;2023-01-15T03:28:12;97522.66;;;12.85;100.00
1616;BME280;801;47.982;7.810;2023-01-15T03:30:40;97525.03;;;13.00;100.00
1616;BME280;801;47.982;7.810;2023-01-15T03:33:06;97499.38;;;12.89;100.00
1616;BME280;801;47.982;7.810;2023-01-15T03:35:43;97513.81;;;13.21;100.00
1616;BME280;801;47.982;7.810;2023-01-15T03:38:11;97524.81;;;12.97;100.00
1616;BME280;801;47.982;7.810;2023-01-15T03:40:45;97500.56;;;12.97;100.00
1616;BME280;801;47.982;7.810;2023-01-15T03:43:18;97494.38;;;12.96;100.00
1616;BME280;801;47.982;7.810;2023-01-15T03:46:07;97501.94;;;13.08;100.00
1616;BME280;801;47.982;7.810;2023-01-15T03:48:43;97501.38;;;12.97;100.00
1616;BME280;801;47.982;7.810;2023-01-15T03:51:17;97506.56;;;12.94;100.00
1616;BME280;801;47.982;7.810;2023-01-15T03:53:48;97524.66;;;12.93;100.00
1616;BME280;801;47.982;7.810;2023-01-15T03:56:19;97498.88;;;12.87;100.00
1616;BME280;801;47.982;7.810;2023-01-15T03:58:52;97503.88;;;12.94;100.00
1616;BME280;801;47.982;7.810;2023-01-15T04:01:25;97499.22;;;13.08;100.00
1616;BME280;801;47.982;7.810;2023-01-15T04:03:53;97499.88;;;12.91;100.00
1616;BME280;801;47.982;7.810;2023-01-15T04:06:21;97507.84;;;12.96;100.00
1616;BME280;801;47.982;7.810;2023-01-15T04:08:50;97487.47;;;13.04;100.00
1616;BME280;801;47.982;7.810;2023-01-15T04:11:22;97500.19;;;12.90;100.00
1616;BME280;801;47.982;7.810;2023-01-15T04:13:51;97483.09;;;12.94;100.00
1616;BME280;801;47.982;7.810;2023-01-15T04:16:23;97484.69;;;12.81;100.00
1616;BME280;801;47.982;7.810;2023-01-15T04:18:50;97480.50;;;12.89;100.00
1616;BME280;801;47.982;7.810;2023-01-15T04:21:17;97505.84;;;12.88;100.00
1616;BME280;801;47.982;7.810;2023-01-15T04:23:43;97510.09;;;12.66;100.00
1616;BME280;801;47.982;7.810;2023-01-15T04:26:10;97479.53;;;12.57;100.00
1616;BME280;801;47.982;7.810;2023-01-15T04:28:36;97478.16;;;12.60;100.00
1616;BME280;801;47.982;7.810;2023-01-15T04:31:04;97475.34;;;12.65;100.00
1616;BME280;801;47.982;7.810;2023-01-15T04:33:31;97475.16;;;12.61;100.00
1616;BME280;801;47.982;7.810;2023-01-15T04:35:58;97444.19;;;12.59;100.00
1616;BME280;801;47.982;7.810;2023-01-15T04:38:24;97470.94;;;12.83;100.00
1616;BME280;801;47.982;7.810;2023-01-15T04:40:51;97486.91;;;12.52;100.00
1616;BME280;801;47.982;7.810;2023-01-15T04:43:35;97470.88;;;12.46;100.00
1616;BME280;801;47.982;7.810;2023-01-15T04:46:21;97499.09;;;12.49;100.00
1616;BME280;801;47.982;7.810;2023-01-15T04:48:48;97475.94;;;12.34;100.00
1616;BME280;801;47.982;7.810;2023-01-15T04:51:15;97471.56;;;12.38;100.00
1616;BME280;801;47.982;7.810;2023-01-15T04:53:41;97511.28;;;12.33;100.00
1616;BME280;801;47.982;7.810;2023-01-15T04:56:08;97478.13;;;12.32;100.00
1616;BME280;801;47.982;7.810;2023-01-15T04:58:35;97472.13;;;12.08;100.00
1616;BME280;801;47.982;7.810;2023-01-15T05:01:02;97464.97;;;12.17;100.00
1616;BME280;801;47.982;7.810;2023-01-15T05:03:32;97467.31;;;11.91;100.00
1616;BME280;801;47.982;7.810;2023-01-15T05:06:00;97455.47;;;12.05;100.00
1616;BME280;801;47.982;7.810;2023-01-15T05:08:27;97500.84;;;12.12;100.00
1616;BME280;801;47.982;7.810;2023-01-15T05:10:53;97465.59;;;12.41;100.00
1616;BME280;801;47.982;7.810;2023-01-15T05:13:20;97448.03;;;12.44;100.00
1616;BME280;801;47.982;7.810;2023-01-15T05:15:46;97459.19;;;12.51;100.00
1616;BME280;801;47.982;7.810;2023-01-15T05:18:13;97496.00;;;12.42;100.00
1616;BME280;801;47.982;7.810;2023-01-15T05:20:41;97478.22;;;12.41;100.00
1616;BME280;801;47.982;7.810;2023-01-15T05:23:07;97473.84;;;12.31;100.00
1616;BME280;801;47.982;7.810;2023-01-15T05:25:35;97465.97;;;12.35;100.00
1616;BME280;801;47.982;7.810;2023-01-15T05:28:01;97472.56;;;12.29;100.00
1616;BME280;801;47.982;7.810;2023-01-15T05:30:28;97478.22;;;12.41;100.00
1616;BME280;801;47.982;7.810;2023-01-15T05:32:55;97509.88;;;12.35;100.00
1616;BME280;801;47.982;7.810;2023-01-15T05:35:21;97491.81;;;12.36;100.00
1616;BME280;801;47.982;7.810;2023-01-15T05:37:49;97458.59;;;12.40;100.00
1616;BME280;801;47.982;7.810;2023-01-15T05:40:16;97454.50;;;12.29;100.00
1616;BME280;801;47.982;7.810;2023-01-15T05:42:42;97450.28;;;12.37;100.00
1616;BME280;801;47.982;7.810;2023-01-15T05:45:09;97449.59;;;12.17;100.00
1616;BME280;801;47.982;7.810;2023-01-15T05:47:35;97452.97;;;12.23;100.00
1616;BME280;801;47.982;7.810;2023-01-15T05:50:02;97442.94;;;12.29;100.00
1616;BME280;801;47.982;7.810;2023-01-15T05:52:29;97467.94;;;12.15;100.00
1616;BME280;801;47.982;7.810;2023-01-15T05:54:57;97460.56;;;12.21;100.00
1616;BME280;801;47.982;7.810;2023-01-15T05:57:23;97461.16;;;12.45;100.00
1616;BME280;801;47.982;7.810;2023-01-15T05:59:49;97452.97;;;12.37;100.00
1616;BME280;801;47.982;7.810;2023-01-15T06:02:17;97483.53;;;12.46;100.00
1616;BME280;801;47.982;7.810;2023-01-15T06:04:44;97493.72;;;12.49;100.00
1616;BME280;801;47.982;7.810;2023-01-15T06:07:10;97481.53;;;12.52;100.00
1616;BME280;801;47.982;7.810;2023-01-15T06:09:36;97516.66;;;12.33;100.00
1616;BME280;801;47.982;7.810;2023-01-15T06:12:05;97519.63;;;12.31;100.00
1616;BME280;801;47.982;7.810;2023-01-15T06:14:31;97491.69;;;12.13;100.00
1616;BME280;801;47.982;7.810;2023-01-15T06:16:58;97480.97;;;11.94;100.00
1616;BME280;801;47.982;7.810;2023-01-15T06:19:24;97489.16;;;11.70;100.00
1616;BME280;801;47.982;7.810;2023-01-15T06:21:51;97501.25;;;11.54;100.00
1616;BME280;801;47.982;7.810;2023-01-15T06:24:17;97504.50;;;11.70;100.00
1616;BME280;801;47.982;7.810;2023-01-15T06:26:45;97531.56;;;11.40;100.00
1616;BME280;801;47.982;7.810;2023-01-15T06:29:12;97506.22;;;11.47;100.00
1616;BME280;801;47.982;7.810;2023-01-15T06:31:43;97515.22;;;11.37;100.00
1616;BME280;801;47.982;7.810;2023-01-15T06:34:09;97503.25;;;11.10;100.00
1616;BME280;801;47.982;7.810;2023-01-15T06:36:36;97503.09;;;11.01;100.00
1616;BME280;801;47.982;7.810;2023-01-15T06:39:02;97484.47;;;10.86;100.00
1616;BME280;801;47.982;7.810;2023-01-15T06:41:29;97497.47;;;10.79;100.00
1616;BME280;801;47.982;7.810;2023-01-15T06:44:16;97499.38;;;10.97;100.00
1616;BME280;801;47.982;7.810;2023-01-15T06:47:02;97508.66;;;10.86;100.00
1616;BME280;801;47.982;7.810;2023-01-15T06:49:47;97535.25;;;11.07;100.00
1616;BME280;801;47.982;7.810;2023-01-15T06:52:14;97523.72;;;11.06;100.00
1616;BME280;801;47.982;7.810;2023-01-15T06:54:40;97518.19;;;10.97;100.00
1616;BME280;801;47.982;7.810;2023-01-15T06:57:07;97535.84;;;11.04;100.00
1616;BME280;801;47.982;7.810;2023-01-15T06:59:35;97541.97;;;11.28;100.00
1616;BME280;801;47.982;7.810;2023-01-15T07:02:01;97563.88;;;10.97;100.00
1616;BME280;801;47.982;7.810;2023-01-15T07:04:28;97558.50;;;10.97;100.00
1616;BME280;801;47.982;7.810;2023-01-15T07:06:55;97553.38;;;10.77;100.00
1616;BME280;801;47.982;7.810;2023-01-15T07:09:21;97567.75;;;11.10;100.00
1616;BME280;801;47.982;7.810;2023-01-15T07:11:48;97599.22;;;11.10;100.00
1616;BME280;801;47.982;7.810;2023-01-15T07:14:15;97612.59;;;10.67;100.00
1616;BME280;801;47.982;7.810;2023-01-15T07:16:43;97620.63;;;10.43;100.00
1616;BME280;801;47.982;7.810;2023-01-15T07:19:10;97620.91;;;10.41;100.00
1616;BME280;801;47.982;7.810;2023-01-15T07:21:36;97641.22;;;9.79;100.00
1616;BME280;801;47.982;7.810;2023-01-15T07:24:04;97655.59;;;9.98;100.00
1616;BME280;801;47.982;7.810;2023-01-15T07:26:30;97679.69;;;10.03;100.00
1616;BME280;801;47.982;7.810;2023-01-15T07:28:57;97675.22;;;9.39;100.00
1616;BME280;801;47.982;7.810;2023-01-15T07:31:23;97689.09;;;9.56;100.00
1616;BME280;801;47.982;7.810;2023-01-15T07:33:51;97700.97;;;9.94;100.00
1616;BME280;801;47.982;7.810;2023-01-15T07:36:18;97718.69;;;9.35;100.00
1616;BME280;801;47.982;7.810;2023-01-15T07:38:44;97723.31;;;8.99;100.00
1616;BME280;801;47.982;7.810;2023-01-15T07:41:10;97739.59;;;9.28;100.00
1616;BME280;801;47.982;7.810;2023-01-15T07:43:54;97755.03;;;9.67;100.00
1616;BME280;801;47.982;7.810;2023-01-15T07:46:38;97765.63;;;9.93;100.00
1616;BME280;801;47.982;7.810;2023-01-15T07:49:24;97761.84;;;9.34;100.00
1616;BME280;801;47.982;7.810;2023-01-15T07:52:17;97764.66;;;9.68;100.00
1616;BME280;801;47.982;7.810;2023-01-15T07:54:45;97781.06;;;9.56;100.00
1616;BME280;801;47.982;7.810;2023-01-15T07:57:13;97781.63;;;10.13;100.00
1616;BME280;801;47.982;7.810;2023-01-15T07:59:40;97779.34;;;9.91;100.00
1616;BME280;801;47.982;7.810;2023-01-15T08:02:06;97792.28;;;9.69;100.00
1616;BME280;801;47.982;7.810;2023-01-15T08:04:34;97792.75;;;9.86;100.00
1616;BME280;801;47.982;7.810;2023-01-15T08:07:02;97798.41;;;9.90;100.00
1616;BME280;801;47.982;7.810;2023-01-15T08:09:28;97802.59;;;10.11;100.00
1616;BME280;801;47.982;7.810;2023-01-15T08:11:58;97810.34;;;10.18;100.00
1616;BME280;801;47.982;7.810;2023-01-15T08:14:42;97820.03;;;10.14;100.00
1616;BME280;801;47.982;7.810;2023-01-15T08:17:27;97836.97;;;10.04;100.00
1616;BME280;801;47.982;7.810;2023-01-15T08:19:55;97843.41;;;10.08;100.00
1616;BME280;801;47.982;7.810;2023-01-15T08:22:21;97847.84;;;9.63;100.00
1616;BME280;801;47.982;7.810;2023-01-15T08:24:48;97849.81;;;8.96;100.00
1616;BME280;801;47.982;7.810;2023-01-15T08:27:14;97849.44;;;9.64;100.00
1616;BME280;801;47.982;7.810;2023-01-15T08:29:41;97853.72;;;9.70;100.00
1616;BME280;801;47.982;7.810;2023-01-15T08:32:07;97834.00;;;9.20;100.00
1616;BME280;801;47.982;7.810;2023-01-15T08:34:34;97850.63;;;8.86;100.00
1616;BME280;801;47.982;7.810;2023-01-15T08:37:01;97851.06;;;8.52;100.00
1616;BME280;801;47.982;7.810;2023-01-15T08:39:28;97863.94;;;8.56;100.00
1616;BME280;801;47.982;7.810;2023-01-15T08:41:55;97889.09;;;7.92;100.00
1616;BME280;801;47.982;7.810;2023-01-15T08:44:21;97902.31;;;8.14;100.00
1616;BME280;801;47.982;7.810;2023-01-15T08:46:49;97908.38;;;7.88;100.00
1616;BME280;801;47.982;7.810;2023-01-15T08:49:17;97912.53;;;7.69;100.00
1616;BME280;801;47.982;7.810;2023-01-15T08:51:44;97902.06;;;8.15;100.00
1616;BME280;801;47.982;7.810;2023-01-15T08:54:15;97910.91;;;8.16;100.00
1616;BME280;801;47.982;7.810;2023-01-15T08:56:41;97931.78;;;8.19;100.00
1616;BME280;801;47.982;7.810;2023-01-15T08:59:09;97945.28;;;7.86;100.00
1616;BME280;801;47.982;7.810;2023-01-15T09:01:35;97950.88;;;7.85;100.00
1616;BME280;801;47.982;7.810;2023-01-15T09:04:02;97945.16;;;7.71;100.00
1616;BME280;801;47.982;7.810;2023-01-15T09:06:30;97943.34;;;8.24;100.00
1616;BME280;801;47.982;7.810;2023-01-15T09:08:58;97948.25;;;7.95;100.00
1616;BME280;801;47.982;7.810;2023-01-15T09:11:26;97951.28;;;7.66;100.00
1616;BME280;801;47.982;7.810;2023-01-15T09:13:52;97954.97;;;7.60;100.00
1616;BME280;801;47.982;7.810;2023-01-15T09:16:19;97949.53;;;7.50;100.00
1616;BME280;801;47.982;7.810;2023-01-15T09:18:45;97948.16;;;7.80;100.00
1616;BME280;801;47.982;7.810;2023-01-15T09:21:12;97957.84;;;7.48;100.00
1616;BME280;801;47.982;7.810;2023-01-15T09:23:38;97977.22;;;7.34;100.00
1616;BME280;801;47.982;7.810;2023-01-15T09:26:06;97969.19;;;7.34;100.00
1616;BME280;801;47.982;7.810;2023-01-15T09:28:34;97972.72;;;7.12;100.00
1616;BME280;801;47.982;7.810;2023-01-15T09:31:01;97975.28;;;6.97;100.00
1616;BME280;801;47.982;7.810;2023-01-15T09:33:27;97975.75;;;6.94;100.00
1616;BME280;801;47.982;7.810;2023-01-15T09:35:54;97986.22;;;6.95;100.00
1616;BME280;801;47.982;7.810;2023-01-15T09:38:20;98005.25;;;6.77;100.00
1616;BME280;801;47.982;7.810;2023-01-15T09:40:49;98006.66;;;6.62;100.00
1616;BME280;801;47.982;7.810;2023-01-15T09:43:28;98022.44;;;6.42;100.00
1616;BME280;801;47.982;7.810;2023-01-15T09:46:03;98050.09;;;6.36;100.00
1616;BME280;801;47.982;7.810;2023-01-15T09:48:44;98021.34;;;6.21;100.00
1616;BME280;801;47.982;7.810;2023-01-15T09:51:18;98041.63;;;6.22;100.00
1616;BME280;801;47.982;7.810;2023-01-15T09:56:41;98048.59;;;6.23;100.00
1616;BME280;801;47.982;7.810;2023-01-15T09:59:17;98041.50;;;6.12;100.00
1616;BME280;801;47.982;7.810;2023-01-15T10:01:48;98056.59;;;6.23;100.00
1616;BME280;801;47.982;7.810;2023-01-15T10:04:18;98054.72;;;5.73;100.00
1616;BME280;801;47.982;7.810;2023-01-15T10:06:55;98069.03;;;6.00;100.00
1616;BME280;801;47.982;7.810;2023-01-15T10:09:28;98048.81;;;5.71;100.00
1616;BME280;801;47.982;7.810;2023-01-15T10:12:03;98078.31;;;5.64;100.00
1616;BME280;801;47.982;7.810;2023-01-15T10:14:54;98065.22;;;5.62;100.00
1616;BME280;801;47.982;7.810;2023-01-15T10:17:28;98066.34;;;5.67;100.00
1616;BME280;801;47.982;7.810;2023-01-15T10:19:59;98080.19;;;5.80;100.00
1616;BME280;801;47.982;7.810;2023-01-15T10:22:49;98094.38;;;5.52;100.00
1616;BME280;801;47.982;7.810;2023-01-15T10:25:21;98096.47;;;5.50;100.00
1616;BME280;801;47.982;7.810;2023-01-15T10:27:50;98108.25;;;5.54;100.00
1616;BME280;801;47.982;7.810;2023-01-15T10:30:26;98116.78;;;5.68;100.00
1616;BME280;801;47.982;7.810;2023-01-15T10:33:04;98124.31;;;5.43;100.00
1616;BME280;801;47.982;7.810;2023-01-15T10:35:41;98121.03;;;5.52;100.00
1616;BME280;801;47.982;7.810;2023-01-15T10:38:16;98103.88;;;5.48;100.00
1616;BME280;801;47.982;7.810;2023-01-15T10:43:47;98120.94;;;5.47;100.00
1616;BME280;801;47.982;7.810;2023-01-15T10:46:16;98127.78;;;5.43;100.00
1616;BME280;801;47.982;7.810;2023-01-15T10:48:45;98126.56;;;5.79;100.00
1616;BME280;801;47.982;7.810;2023-01-15T10:51:16;98125.13;;;5.43;100.00
1616;BME280;801;47.982;7.810;2023-01-15T10:53:47;98134.13;;;5.71;100.00
1616;BME280;801;47.982;7.810;2023-01-15T10:56:24;98139.03;;;5.62;100.00
1616;BME280;801;47.982;7.810;2023-01-15T10:58:58;98123.78;;;5.57;100.00
1616;BME280;801;47.982;7.810;2023-01-15T11:01:29;98124.91;;;5.61;100.00
1616;BME280;801;47.982;7.810;2023-01-15T11:03:57;98145.91;;;5.58;100.00
1616;BME280;801;47.982;7.810;2023-01-15T11:06:24;98142.91;;;5.54;100.00
1616;BME280;801;47.982;7.810;2023-01-15T11:08:52;98149.47;;;5.64;100.00
1616;BME280;801;47.982;7.810;2023-01-15T11:11:21;98145.94;;;5.75;100.00
1616;BME280;801;47.982;7.810;2023-01-15T11:14:16;98153.00;;;5.52;100.00
1616;BME280;801;47.982;7.810;2023-01-15T11:17:00;98161.50;;;5.66;100.00
1616;BME280;801;47.982;7.810;2023-01-15T11:19:44;98152.09;;;5.75;100.00
1616;BME280;801;47.982;7.810;2023-01-15T11:22:13;98157.38;;;5.58;100.00
1616;BME280;801;47.982;7.810;2023-01-15T11:24:48;98161.72;;;5.93;100.00
1616;BME280;801;47.982;7.810;2023-01-15T11:27:17;98167.03;;;5.48;100.00
1616;BME280;801;47.982;7.810;2023-01-15T11:29:50;98162.28;;;5.50;100.00
1616;BME280;801;47.982;7.810;2023-01-15T11:32:24;98165.09;;;5.43;100.00
1616;BME280;801;47.982;7.810;2023-01-15T11:34:53;98166.84;;;5.37;100.00
1616;BME280;801;47.982;7.810;2023-01-15T11:37:19;98167.28;;;5.46;100.00
1616;BME280;801;47.982;7.810;2023-01-15T11:39:51;98168.94;;;5.35;100.00
1616;BME280;801;47.982;7.810;2023-01-15T11:42:19;98155.94;;;5.39;100.00
1616;BME280;801;47.982;7.810;2023-01-15T11:45:13;98180.63;;;5.34;100.00
1616;BME280;801;47.982;7.810;2023-01-15T11:47:58;98170.16;;;5.16;100.00
1616;BME280;801;47.982;7.810;2023-01-15T11:50:49;98184.00;;;5.30;100.00
1616;BME280;801;47.982;7.810;2023-01-15T11:53:20;98183.34;;;5.11;100.00
1616;BME280;801;47.982;7.810;2023-01-15T11:55:51;98181.94;;;5.20;100.00
1616;BME280;801;47.982;7.810;2023-01-15T11:58:18;98165.38;;;5.30;100.00
1616;BME280;801;47.982;7.810;2023-01-15T12:00:48;98169.06;;;5.29;100.00
1616;BME280;801;47.982;7.810;2023-01-15T12:03:18;98181.75;;;5.50;100.00
1616;BME280;801;47.982;7.810;2023-01-15T12:05:47;98179.19;;;5.15;100.00
1616;BME280;801;47.982;7.810;2023-01-15T12:08:31;98169.34;;;5.44;100.00
1616;BME280;801;47.982;7.810;2023-01-15T12:11:06;98181.97;;;5.08;100.00
1616;BME280;801;47.982;7.810;2023-01-15T12:13:45;98191.47;;;5.04;100.00
1616;BME280;801;47.982;7.810;2023-01-15T12:16:23;98194.47;;;5.08;100.00
1616;BME280;801;47.982;7.810;2023-01-15T12:19:07;98188.28;;;5.31;100.00
1616;BME280;801;47.982;7.810;2023-01-15T12:22:02;98196.56;;;5.06;100.00
1616;BME280;801;47.982;7.810;2023-01-15T12:24:56;98182.53;;;5.10;100.00
1616;BME280;801;47.982;7.810;2023-01-15T12:27:51;98204.69;;;4.99;100.00
1616;BME280;801;47.982;7.810;2023-01-15T12:30:24;98193.34;;;5.44;100.00
1616;BME280;801;47.982;7.810;2023-01-15T12:33:01;98203.81;;;5.34;100.00
1616;BME280;801;47.982;7.810;2023-01-15T12:35:32;98204.81;;;5.45;100.00
1616;BME280;801;47.982;7.810;2023-01-15T12:38:07;98212.06;;;5.20;100.00
1616;BME280;801;47.982;7.810;2023-01-15T12:40:40;98200.34;;;5.22;100.00
1616;BME280;801;47.982;7.810;2023-01-15T12:43:15;98195.25;;;5.32;100.00
1616;BME280;801;47.982;7.810;2023-01-15T12:46:01;98198.75;;;5.20;100.00
1616;BME280;801;47.982;7.810;2023-01-15T12:48:38;98195.69;;;5.29;100.00
1616;BME280;801;47.982;7.810;2023-01-15T12:51:13;98198.63;;;5.27;100.00
1616;BME280;801;47.982;7.810;2023-01-15T12:53:45;98210.41;;;5.31;100.00
1616;BME280;801;47.982;7.810;2023-01-15T12:56:16;98203.81;;;5.34;100.00
1616;BME280;801;47.982;7.810;2023-01-15T12:58:48;98193.03;;;5.40;100.00
1616;BME280;801;47.982;7.810;2023-01-15T13:01:20;98184.38;;;5.62;100.00
1616;BME280;801;47.982;7.810;2023-01-15T13:03:59;98193.03;;;5.40;100.00
1616;BME280;801;47.982;7.810;2023-01-15T13:06:31;98193.00;;;5.81;100.00
1616;BME280;801;47.982;7.810;2023-01-15T13:09:01;98199.50;;;5.73;100.00
1616;BME280;801;47.982;7.810;2023-01-15T13:11:29;98207.69;;;5.55;100.00
1616;BME280;801;47.982;7.810;2023-01-15T13:13:55;98205.25;;;5.53;100.00
1616;BME280;801;47.982;7.810;2023-01-15T13:16:34;98221.16;;;5.48;100.00
1616;BME280;801;47.982;7.810;2023-01-15T13:19:19;98228.03;;;5.73;100.00
1616;BME280;801;47.982;7.810;2023-01-15T13:21:49;98215.81;;;7.07;100.00
1616;BME280;801;47.982;7.810;2023-01-15T13:24:47;98234.94;;;7.82;100.00
1616;BME280;801;47.982;7.810;2023-01-15T13:27:29;98239.59;;;7.25;100.00
1616;BME280;801;47.982;7.810;2023-01-15T13:30:11;98225.78;;;7.78;100.00
1616;BME280;801;47.982;7.810;2023-01-15T13:32:42;98247.00;;;7.84;100.00
1616;BME280;801;47.982;7.810;2023-01-15T13:35:15;98234.38;;;7.80;100.00
1616;BME280;801;47.982;7.810;2023-01-15T13:37:46;98244.16;;;7.69;100.00
1616;BME280;801;47.982;7.810;2023-01-15T13:40:19;98255.28;;;8.10;100.00
1616;BME280;801;47.982;7.810;2023-01-15T13:42:49;98260.75;;;7.71;100.00
1616;BME280;801;47.982;7.810;2023-01-15T13:45:22;98275.69;;;7.67;100.00
1616;BME280;801;47.982;7.810;2023-01-15T13:47:53;98263.66;;;7.47;100.00
1616;BME280;801;47.982;7.810;2023-01-15T13:50:28;98265.59;;;7.30;100.00
1616;BME280;801;47.982;7.810;2023-01-15T13:53:03;98252.59;;;7.83;100.00
1616;BME280;801;47.982;7.810;2023-01-15T13:55:33;98279.84;;;7.58;100.00